sensor_id;sensor_type;location;lat;lon;timestamp;temperature;humidity
6355;DHT22;3210;48.708;9.030;2023-02-15T00:01:49;-1.40;1.00
6355;DHT22;3210;48.708;9.030;2023-02-15T00:04:18;-1.40;1.00
6355;DHT22;3210;48.708;9.030;2023-02-15T00:06:45;-1.40;1.00
6355;DHT22;3210;48.708;9.030;2023-02-15T00:09:12;-1.40;1.00
6355;DHT22;3210;48.708;9.030;2023-02-15T00:11:39;-1.40;1.00
6355;DHT22;3210;48.708;9.030;2023-02-15T00:14:09;-1.40;1.00
6355;DHT22;3210;48.708;9.030;2023-02-15T00:16:36;-1.40;1.00
6355;DHT22;3210;48.708;9.030;2023-02-15T00:19:04;-1.40;1.00
6355;DHT22;3210;48.708;9.030;2023-02-15T00:21:32;-1.50;1.00
6355;DHT22;3210;48.708;9.030;2023-02-15T00:24:00;-1.50;1.00
6355;DHT22;3210;48.708;9.030;2023-02-15T00:26:28;-1.50;1.00
6355;DHT22;3210;48.708;9.030;2023-02-15T00:28:55;-1.50;1.00
6355;DHT22;3210;48.708;9.030;2023-02-15T00:31:25;-1.50;1.00
6355;DHT22;3210;48.708;9.030;2023-02-15T00:33:52;-1.50;1.00
6355;DHT22;3210;48.708;9.030;2023-02-15T00:36:19;-1.60;1.00
6355;DHT22;3210;48.708;9.030;2023-02-15T00:38:46;-1.60;99.90
6355;DHT22;3210;48.708;9.030;2023-02-15T00:41:13;-1.70;99.90
6355;DHT22;3210;48.708;9.030;2023-02-15T00:43:39;-1.60;99.90
6355;DHT22;3210;48.708;9.030;2023-02-15T00:46:06;-1.70;1.00
6355;DHT22;3210;48.708;9.030;2023-02-15T00:48:34;-1.60;1.00
6355;DHT22;3210;48.708;9.030;2023-02-15T00:51:01;-1.70;1.00
6355;DHT22;3210;48.708;9.030;2023-02-15T00:53:28;-1.70;1.00
6355;DHT22;3210;48.708;9.030;2023-02-15T00:55:56;-1.70;1.00
6355;DHT22;3210;48.708;9.030;2023-02-15T00:58:23;-1.70;1.00
6355;DHT22;3210;48.708;9.030;2023-02-15T01:00:50;-1.70;1.00
6355;DHT22;3210;48.708;9.030;2023-02-15T01:03:19;-1.70;1.00
6355;DHT22;3210;48.708;9.030;2023-02-15T01:05:48;-1.80;1.00
6355;DHT22;3210;48.708;9.030;2023-02-15T01:08:17;-1.80;1.00
6355;DHT22;3210;48.708;9.030;2023-02-15T01:10:44;-1.80;1.00
6355;DHT22;3210;48.708;9.030;2023-02-15T01:13:13;-1.80;1.00
6355;DHT22;3210;48.708;9.030;2023-02-15T01:15:41;-1.80;1.00
6355;DHT22;3210;48.708;9.030;2023-02-15T01:18:07;-1.70;1.00
6355;DHT22;3210;48.708;9.030;2023-02-15T01:20:36;-1.70;1.00
6355;DHT22;3210;48.708;9.030;2023-02-15T01:23:06;-1.70;1.00
6355;DHT22;3210;48.708;9.030;2023-02-15T01:25:35;-1.70;1.00
6355;DHT22;3210;48.708;9.030;2023-02-15T01:28:02;-1.70;1.00
6355;DHT22;3210;48.708;9.030;2023-02-15T01:30:29;-1.80;1.00
6355;DHT22;3210;48.708;9.030;2023-02-15T01:32:56;-1.80;1.00
6355;DHT22;3210;48.708;9.030;2023-02-15T01:35:23;-1.80;99.90
6355;DHT22;3210;48.708;9.030;2023-02-15T01:37:50;-1.80;99.90
6355;DHT22;3210;48.708;9.030;2023-02-15T01:40:18;-1.80;99.90
6355;DHT22;3210;48.708;9.030;2023-02-15T01:42:50;-1.90;99.90
6355;DHT22;3210;48.708;9.030;2023-02-15T01:45:21;-1.90;99.90
6355;DHT22;3210;48.708;9.030;2023-02-15T01:47:52;-1.90;99.90
6355;DHT22;3210;48.708;9.030;2023-02-15T01:50:24;-1.80;99.90
6355;DHT22;3210;48.708;9.030;2023-02-15T01:52:57;-1.90;99.90
6355;DHT22;3210;48.708;9.030;2023-02-15T01:55:30;-1.90;99.90
6355;DHT22;3210;48.708;9.030;2023-02-15T01:57:59;-1.90;99.90
6355;DHT22;3210;48.708;9.030;2023-02-15T02:00:26;-1.90;99.90
6355;DHT22;3210;48.708;9.030;2023-02-15T02:02:54;-1.90;99.90
6355;DHT22;3210;48.708;9.030;2023-02-15T02:05:22;-1.90;99.90
6355;DHT22;3210;48.708;9.030;2023-02-15T02:07:52;-1.90;99.90
6355;DHT22;3210;48.708;9.030;2023-02-15T02:10:21;-2.00;99.90
6355;DHT22;3210;48.708;9.030;2023-02-15T02:12:51;-2.00;99.90
6355;DHT22;3210;48.708;9.030;2023-02-15T02:15:23;-2.00;99.90
6355;DHT22;3210;48.708;9.030;2023-02-15T02:18:01;-2.00;99.90
6355;DHT22;3210;48.708;9.030;2023-02-15T02:20:44;-2.10;99.90
6355;DHT22;3210;48.708;9.030;2023-02-15T02:23:24;-2.00;99.90
6355;DHT22;3210;48.708;9.030;2023-02-15T02:26:18;-2.10;99.90
6355;DHT22;3210;48.708;9.030;2023-02-15T02:29:29;-2.10;99.90
6355;DHT22;3210;48.708;9.030;2023-02-15T02:32:29;-2.10;99.90
6355;DHT22;3210;48.708;9.030;2023-02-15T02:35:04;-2.10;99.90
6355;DHT22;3210;48.708;9.030;2023-02-15T02:37:42;-2.20;99.90
6355;DHT22;3210;48.708;9.030;2023-02-15T02:40:16;-2.20;99.90
6355;DHT22;3210;48.708;9.030;2023-02-15T02:42:51;-2.20;99.90
6355;DHT22;3210;48.708;9.030;2023-02-15T02:45:24;-2.20;99.90
6355;DHT22;3210;48.708;9.030;2023-02-15T02:47:55;-2.20;99.90
6355;DHT22;3210;48.708;9.030;2023-02-15T02:50:27;-2.10;99.90
6355;DHT22;3210;48.708;9.030;2023-02-15T02:52:55;-2.10;99.90
6355;DHT22;3210;48.708;9.030;2023-02-15T02:55:25;-2.10;99.90
6355;DHT22;3210;48.708;9.030;2023-02-15T02:57:55;-2.10;99.90
6355;DHT22;3210;48.708;9.030;2023-02-15T03:00:26;-2.20;99.90
6355;DHT22;3210;48.708;9.030;2023-02-15T03:03:00;-2.20;99.90
6355;DHT22;3210;48.708;9.030;2023-02-15T03:05:33;-2.10;99.90
6355;DHT22;3210;48.708;9.030;2023-02-15T03:08:02;-1.90;99.90
6355;DHT22;3210;48.708;9.030;2023-02-15T03:10:32;-1.90;99.90
6355;DHT22;3210;48.708;9.030;2023-02-15T03:13:00;-2.00;99.90
6355;DHT22;3210;48.708;9.030;2023-02-15T03:15:30;-2.10;98.30
6355;DHT22;3210;48.708;9.030;2023-02-15T03:18:22;-2.20;94.00
6355;DHT22;3210;48.708;9.030;2023-02-15T03:20:51;-2.20;62.20
6355;DHT22;3210;48.708;9.030;2023-02-15T03:23:22;-2.30;76.50
6355;DHT22;3210;48.708;9.030;2023-02-15T03:25:52;-2.30;94.10
6355;DHT22;3210;48.708;9.030;2023-02-15T03:28:24;-2.30;99.90
6355;DHT22;3210;48.708;9.030;2023-02-15T03:30:55;-2.30;99.90
6355;DHT22;3210;48.708;9.030;2023-02-15T03:33:23;-2.30;99.90
6355;DHT22;3210;48.708;9.030;2023-02-15T03:35:58;-2.30;99.90
6355;DHT22;3210;48.708;9.030;2023-02-15T03:38:31;-2.40;99.90
6355;DHT22;3210;48.708;9.030;2023-02-15T03:41:01;-2.40;99.90
6355;DHT22;3210;48.708;9.030;2023-02-15T03:43:43;-2.30;99.90
6355;DHT22;3210;48.708;9.030;2023-02-15T03:46:15;-2.40;99.90
6355;DHT22;3210;48.708;9.030;2023-02-15T03:48:47;-2.40;99.90
6355;DHT22;3210;48.708;9.030;2023-02-15T03:51:19;-2.40;99.90
6355;DHT22;3210;48.708;9.030;2023-02-15T03:54:06;-2.40;99.90
6355;DHT22;3210;48.708;9.030;2023-02-15T03:56:34;-2.40;99.90
6355;DHT22;3210;48.708;9.030;2023-02-15T03:59:02;-2.20;95.40
6355;DHT22;3210;48.708;9.030;2023-02-15T04:01:54;-2.00;28.10
6355;DHT22;3210;48.708;9.030;2023-02-15T04:04:28;-2.00;1.00
6355;DHT22;3210;48.708;9.030;2023-02-15T04:06:58;-2.20;1.00
6355;DHT22;3210;48.708;9.030;2023-02-15T04:09:25;-2.30;1.00
6355;DHT22;3210;48.708;9.030;2023-02-15T04:12:09;-2.30;1.00
6355;DHT22;3210;48.708;9.030;2023-02-15T04:14:36;-2.40;1.00
6355;DHT22;3210;48.708;9.030;2023-02-15T04:17:21;-2.50;1.00
6355;DHT22;3210;48.708;9.030;2023-02-15T04:19:47;-2.50;1.00
6355;DHT22;3210;48.708;9.030;2023-02-15T04:22:33;-2.50;12.30
6355;DHT22;3210;48.708;9.030;2023-02-15T04:25:17;-2.50;20.70
6355;DHT22;3210;48.708;9.030;2023-02-15T04:27:46;-2.50;16.50
6355;DHT22;3210;48.708;9.030;2023-02-15T04:30:15;-2.50;23.40
6355;DHT22;3210;48.708;9.030;2023-02-15T04:32:42;-2.50;37.40
6355;DHT22;3210;48.708;9.030;2023-02-15T04:35:09;-2.50;36.40
6355;DHT22;3210;48.708;9.030;2023-02-15T04:37:38;-2.60;35.40
6355;DHT22;3210;48.708;9.030;2023-02-15T04:40:08;-2.60;45.00
6355;DHT22;3210;48.708;9.030;2023-02-15T04:42:35;-2.60;47.00
6355;DHT22;3210;48.708;9.030;2023-02-15T04:45:02;-2.60;99.90
6355;DHT22;3210;48.708;9.030;2023-02-15T04:47:30;-2.70;99.90
6355;DHT22;3210;48.708;9.030;2023-02-15T04:49:57;-2.60;99.90
6355;DHT22;3210;48.708;9.030;2023-02-15T04:52:23;-2.60;99.90
6355;DHT22;3210;48.708;9.030;2023-02-15T04:54:51;-2.70;99.90
6355;DHT22;3210;48.708;9.030;2023-02-15T04:57:18;-2.60;99.90
6355;DHT22;3210;48.708;9.030;2023-02-15T04:59:45;-2.60;99.90
6355;DHT22;3210;48.708;9.030;2023-02-15T05:02:12;-2.60;99.90
6355;DHT22;3210;48.708;9.030;2023-02-15T05:04:39;-2.40;99.90
6355;DHT22;3210;48.708;9.030;2023-02-15T05:07:05;-2.30;99.90
6355;DHT22;3210;48.708;9.030;2023-02-15T05:09:32;-2.40;46.70
6355;DHT22;3210;48.708;9.030;2023-02-15T05:12:00;-2.40;22.20
6355;DHT22;3210;48.708;9.030;2023-02-15T05:14:27;-2.40;13.20
6355;DHT22;3210;48.708;9.030;2023-02-15T05:16:54;-2.50;1.00
6355;DHT22;3210;48.708;9.030;2023-02-15T05:19:21;-2.50;1.00
6355;DHT22;3210;48.708;9.030;2023-02-15T05:21:50;-2.70;1.00
6355;DHT22;3210;48.708;9.030;2023-02-15T05:24:16;-2.70;1.00
6355;DHT22;3210;48.708;9.030;2023-02-15T05:27:02;-2.70;16.50
6355;DHT22;3210;48.708;9.030;2023-02-15T05:29:49;-2.80;99.90
6355;DHT22;3210;48.708;9.030;2023-02-15T05:32:15;-2.70;99.90
6355;DHT22;3210;48.708;9.030;2023-02-15T05:34:42;-2.70;99.90
6355;DHT22;3210;48.708;9.030;2023-02-15T05:37:09;-2.70;99.90
6355;DHT22;3210;48.708;9.030;2023-02-15T05:39:36;-2.70;99.90
6355;DHT22;3210;48.708;9.030;2023-02-15T05:42:04;-2.70;96.70
6355;DHT22;3210;48.708;9.030;2023-02-15T05:44:31;-2.70;94.10
6355;DHT22;3210;48.708;9.030;2023-02-15T05:46:57;-2.70;92.50
6355;DHT22;3210;48.708;9.030;2023-02-15T05:49:24;-2.70;90.90
6355;DHT22;3210;48.708;9.030;2023-02-15T05:51:51;-2.60;98.60
6355;DHT22;3210;48.708;9.030;2023-02-15T05:54:18;-2.60;99.90
6355;DHT22;3210;48.708;9.030;2023-02-15T05:56:44;-2.60;99.90
6355;DHT22;3210;48.708;9.030;2023-02-15T05:59:13;-2.60;96.30
6355;DHT22;3210;48.708;9.030;2023-02-15T06:01:39;-2.60;91.50
6355;DHT22;3210;48.708;9.030;2023-02-15T06:04:06;-2.60;99.90
6355;DHT22;3210;48.708;9.030;2023-02-15T06:06:33;-2.60;99.90
6355;DHT22;3210;48.708;9.030;2023-02-15T06:09:01;-2.70;99.90
6355;DHT22;3210;48.708;9.030;2023-02-15T06:11:27;-2.70;99.90
6355;DHT22;3210;48.708;9.030;2023-02-15T06:13:54;-2.70;99.90
6355;DHT22;3210;48.708;9.030;2023-02-15T06:16:22;-2.70;99.90
6355;DHT22;3210;48.708;9.030;2023-02-15T06:18:49;-2.70;99.90
6355;DHT22;3210;48.708;9.030;2023-02-15T06:21:16;-2.70;99.90
6355;DHT22;3210;48.708;9.030;2023-02-15T06:23:43;-2.60;99.90
6355;DHT22;3210;48.708;9.030;2023-02-15T06:26:10;-2.70;99.90
6355;DHT22;3210;48.708;9.030;2023-02-15T06:28:36;-2.50;99.90
6355;DHT22;3210;48.708;9.030;2023-02-15T06:31:03;-2.40;82.30
6355;DHT22;3210;48.708;9.030;2023-02-15T06:33:32;-2.50;2.50
6355;DHT22;3210;48.708;9.030;2023-02-15T06:36:00;-2.60;1.00
6355;DHT22;3210;48.708;9.030;2023-02-15T06:38:27;-2.60;1.00
6355;DHT22;3210;48.708;9.030;2023-02-15T06:40:53;-2.70;1.00
6355;DHT22;3210;48.708;9.030;2023-02-15T06:43:20;-2.70;1.00
6355;DHT22;3210;48.708;9.030;2023-02-15T06:45:47;-2.70;1.00
6355;DHT22;3210;48.708;9.030;2023-02-15T06:48:14;-2.70;9.80
6355;DHT22;3210;48.708;9.030;2023-02-15T06:50:42;-2.70;16.60
6355;DHT22;3210;48.708;9.030;2023-02-15T06:53:09;-2.70;58.70
6355;DHT22;3210;48.708;9.030;2023-02-15T06:55:36;-2.70;99.90
6355;DHT22;3210;48.708;9.030;2023-02-15T06:58:02;-2.70;99.90
6355;DHT22;3210;48.708;9.030;2023-02-15T07:00:29;-2.70;99.90
6355;DHT22;3210;48.708;9.030;2023-02-15T07:02:56;-2.60;99.90
6355;DHT22;3210;48.708;9.030;2023-02-15T07:05:23;-2.60;99.90
6355;DHT22;3210;48.708;9.030;2023-02-15T07:07:51;-2.60;99.90
6355;DHT22;3210;48.708;9.030;2023-02-15T07:10:18;-2.40;99.90
6355;DHT22;3210;48.708;9.030;2023-02-15T07:12:45;-2.40;99.90
6355;DHT22;3210;48.708;9.030;2023-02-15T07:15:13;-2.40;99.90
6355;DHT22;3210;48.708;9.030;2023-02-15T07:17:40;-2.30;99.90
6355;DHT22;3210;48.708;9.030;2023-02-15T07:20:09;-2.20;99.90
6355;DHT22;3210;48.708;9.030;2023-02-15T07:22:37;-2.20;99.90
6355;DHT22;3210;48.708;9.030;2023-02-15T07:25:08;-2.10;1.00
6355;DHT22;3210;48.708;9.030;2023-02-15T07:27:35;-2.00;1.00
6355;DHT22;3210;48.708;9.030;2023-02-15T07:30:02;-2.00;1.00
6355;DHT22;3210;48.708;9.030;2023-02-15T07:32:30;-1.90;1.00
6355;DHT22;3210;48.708;9.030;2023-02-15T07:34:57;-1.80;19.90
6355;DHT22;3210;48.708;9.030;2023-02-15T07:37:24;-1.80;42.70
6355;DHT22;3210;48.708;9.030;2023-02-15T07:39:51;-1.70;99.90
6355;DHT22;3210;48.708;9.030;2023-02-15T07:42:20;-1.60;99.90
6355;DHT22;3210;48.708;9.030;2023-02-15T07:44:47;-1.40;99.90
6355;DHT22;3210;48.708;9.030;2023-02-15T07:47:14;-1.30;99.90
6355;DHT22;3210;48.708;9.030;2023-02-15T07:49:41;-1.20;99.90
6355;DHT22;3210;48.708;9.030;2023-02-15T07:52:08;-1.00;99.90
6355;DHT22;3210;48.708;9.030;2023-02-15T07:54:35;-0.90;99.90
6355;DHT22;3210;48.708;9.030;2023-02-15T07:57:02;-0.80;99.90
6355;DHT22;3210;48.708;9.030;2023-02-15T07:59:30;-0.70;99.90
6355;DHT22;3210;48.708;9.030;2023-02-15T08:01:57;-0.50;99.90
6355;DHT22;3210;48.708;9.030;2023-02-15T08:04:24;-0.20;99.00
6355;DHT22;3210;48.708;9.030;2023-02-15T08:06:53;0.10;1.00
6355;DHT22;3210;48.708;9.030;2023-02-15T08:09:20;0.10;99.90
6355;DHT22;3210;48.708;9.030;2023-02-15T08:11:47;0.30;27.90
6355;DHT22;3210;48.708;9.030;2023-02-15T08:14:16;0.40;1.00
6355;DHT22;3210;48.708;9.030;2023-02-15T08:16:46;0.40;1.00
6355;DHT22;3210;48.708;9.030;2023-02-15T08:19:15;0.60;1.00
6355;DHT22;3210;48.708;9.030;2023-02-15T08:21:44;0.70;1.00
6355;DHT22;3210;48.708;9.030;2023-02-15T08:24:12;0.80;99.90
6355;DHT22;3210;48.708;9.030;2023-02-15T08:26:41;1.00;99.90
6355;DHT22;3210;48.708;9.030;2023-02-15T08:29:10;1.00;99.90
6355;DHT22;3210;48.708;9.030;2023-02-15T08:31:37;1.30;99.90
6355;DHT22;3210;48.708;9.030;2023-02-15T08:34:08;1.40;99.90
6355;DHT22;3210;48.708;9.030;2023-02-15T08:36:36;1.60;99.90
6355;DHT22;3210;48.708;9.030;2023-02-15T08:39:04;1.80;99.90
6355;DHT22;3210;48.708;9.030;2023-02-15T08:41:33;1.90;99.90
6355;DHT22;3210;48.708;9.030;2023-02-15T08:44:02;2.00;99.90
6355;DHT22;3210;48.708;9.030;2023-02-15T08:46:31;2.10;99.90
6355;DHT22;3210;48.708;9.030;2023-02-15T08:48:58;2.30;99.90
6355;DHT22;3210;48.708;9.030;2023-02-15T08:51:28;2.40;99.90
6355;DHT22;3210;48.708;9.030;2023-02-15T08:53:57;2.50;99.90
6355;DHT22;3210;48.708;9.030;2023-02-15T08:56:26;2.80;99.90
6355;DHT22;3210;48.708;9.030;2023-02-15T08:58:53;2.70;99.90
6355;DHT22;3210;48.708;9.030;2023-02-15T09:01:21;2.90;99.90
6355;DHT22;3210;48.708;9.030;2023-02-15T09:03:50;2.90;99.90
6355;DHT22;3210;48.708;9.030;2023-02-15T09:06:19;2.90;99.90
6355;DHT22;3210;48.708;9.030;2023-02-15T09:08:47;3.00;99.90
6355;DHT22;3210;48.708;9.030;2023-02-15T09:11:16;3.10;99.90
6355;DHT22;3210;48.708;9.030;2023-02-15T09:13:49;3.40;99.90
6355;DHT22;3210;48.708;9.030;2023-02-15T09:16:16;3.60;99.90
6355;DHT22;3210;48.708;9.030;2023-02-15T09:18:43;3.70;95.20
6355;DHT22;3210;48.708;9.030;2023-02-15T09:21:11;3.80;91.90
6355;DHT22;3210;48.708;9.030;2023-02-15T09:23:41;4.00;83.50
6355;DHT22;3210;48.708;9.030;2023-02-15T09:26:10;4.10;80.20
6355;DHT22;3210;48.708;9.030;2023-02-15T09:28:38;4.10;76.50
6355;DHT22;3210;48.708;9.030;2023-02-15T09:31:07;4.10;81.20
6355;DHT22;3210;48.708;9.030;2023-02-15T09:33:34;4.10;78.90
6355;DHT22;3210;48.708;9.030;2023-02-15T09:36:01;4.20;72.70
6355;DHT22;3210;48.708;9.030;2023-02-15T09:38:28;4.40;71.30
6355;DHT22;3210;48.708;9.030;2023-02-15T09:41:05;4.40;59.70
6355;DHT22;3210;48.708;9.030;2023-02-15T09:43:42;4.60;70.70
6355;DHT22;3210;48.708;9.030;2023-02-15T09:46:27;4.80;40.60
6355;DHT22;3210;48.708;9.030;2023-02-15T09:49:03;5.10;35.90
6355;DHT22;3210;48.708;9.030;2023-02-15T09:54:26;5.50;26.50
6355;DHT22;3210;48.708;9.030;2023-02-15T09:56:58;5.70;23.10
6355;DHT22;3210;48.708;9.030;2023-02-15T09:59:34;5.80;18.70
6355;DHT22;3210;48.708;9.030;2023-02-15T10:02:15;6.00;16.60
6355;DHT22;3210;48.708;9.030;2023-02-15T10:04:54;6.00;16.00
6355;DHT22;3210;48.708;9.030;2023-02-15T10:07:37;6.20;13.30
6355;DHT22;3210;48.708;9.030;2023-02-15T10:10:17;6.40;6.20
6355;DHT22;3210;48.708;9.030;2023-02-15T10:13:00;6.60;3.00
6355;DHT22;3210;48.708;9.030;2023-02-15T10:15:52;6.70;3.80
6355;DHT22;3210;48.708;9.030;2023-02-15T10:18:36;6.80;8.90
6355;DHT22;3210;48.708;9.030;2023-02-15T10:21:15;6.90;1.80
6355;DHT22;3210;48.708;9.030;2023-02-15T10:23:58;7.00;8.50
6355;DHT22;3210;48.708;9.030;2023-02-15T10:26:33;7.20;1.00
6355;DHT22;3210;48.708;9.030;2023-02-15T10:29:04;7.30;1.00
6355;DHT22;3210;48.708;9.030;2023-02-15T10:31:37;7.60;1.00
6355;DHT22;3210;48.708;9.030;2023-02-15T10:34:15;7.70;1.00
6355;DHT22;3210;48.708;9.030;2023-02-15T10:36:56;7.80;1.00
6355;DHT22;3210;48.708;9.030;2023-02-15T10:39:29;8.00;1.00
6355;DHT22;3210;48.708;9.030;2023-02-15T10:42:05;8.10;1.00
6355;DHT22;3210;48.708;9.030;2023-02-15T10:44:44;8.10;1.00
6355;DHT22;3210;48.708;9.030;2023-02-15T10:47:33;8.40;1.00
6355;DHT22;3210;48.708;9.030;2023-02-15T10:50:16;8.50;1.00
6355;DHT22;3210;48.708;9.030;2023-02-15T10:52:55;8.60;1.00
6355;DHT22;3210;48.708;9.030;2023-02-15T10:55:30;8.70;1.00
6355;DHT22;3210;48.708;9.030;2023-02-15T10:58:08;8.90;1.00
6355;DHT22;3210;48.708;9.030;2023-02-15T11:00:45;9.00;1.00
6355;DHT22;3210;48.708;9.030;2023-02-15T11:03:36;9.30;1.00
6355;DHT22;3210;48.708;9.030;2023-02-15T11:06:07;9.30;1.00
6355;DHT22;3210;48.708;9.030;2023-02-15T11:08:39;9.50;1.00
6355;DHT22;3210;48.708;9.030;2023-02-15T11:11:09;9.70;1.00
6355;DHT22;3210;48.708;9.030;2023-02-15T11:13:39;9.70;1.00
6355;DHT22;3210;48.708;9.030;2023-02-15T11:16:11;9.80;1.00
6355;DHT22;3210;48.708;9.030;2023-02-15T11:18:41;9.80;1.00
6355;DHT22;3210;48.708;9.030;2023-02-15T11:21:13;9.90;1.00
6355;DHT22;3210;48.708;9.030;2023-02-15T11:23:44;9.90;1.00
6355;DHT22;3210;48.708;9.030;2023-02-15T11:26:14;10.00;1.00
6355;DHT22;3210;48.708;9.030;2023-02-15T11:28:45;10.20;1.00
6355;DHT22;3210;48.708;9.030;2023-02-15T11:31:17;10.20;1.00
6355;DHT22;3210;48.708;9.030;2023-02-15T11:33:48;10.40;1.00
6355;DHT22;3210;48.708;9.030;2023-02-15T11:36:19;10.50;1.00
6355;DHT22;3210;48.708;9.030;2023-02-15T11:38:50;10.60;1.00
6355;DHT22;3210;48.708;9.030;2023-02-15T11:41:19;10.70;1.00
6355;DHT22;3210;48.708;9.030;2023-02-15T11:43:53;10.80;1.00
6355;DHT22;3210;48.708;9.030;2023-02-15T11:46:20;10.80;1.00
6355;DHT22;3210;48.708;9.030;2023-02-15T11:48:49;10.90;1.00
6355;DHT22;3210;48.708;9.030;2023-02-15T11:51:17;10.80;1.00
6355;DHT22;3210;48.708;9.030;2023-02-15T11:53:45;10.90;1.00
6355;DHT22;3210;48.708;9.030;2023-02-15T11:56:14;11.00;1.00
6355;DHT22;3210;48.708;9.030;2023-02-15T11:58:45;11.10;1.00
6355;DHT22;3210;48.708;9.030;2023-02-15T12:01:18;11.10;1.00
6355;DHT22;3210;48.708;9.030;2023-02-15T12:03:50;11.20;1.00
6355;DHT22;3210;48.708;9.030;2023-02-15T12:06:23;11.30;1.00
6355;DHT22;3210;48.708;9.030;2023-02-15T12:08:55;11.30;1.00
6355;DHT22;3210;48.708;9.030;2023-02-15T12:11:29;11.40;1.00
6355;DHT22;3210;48.708;9.030;2023-02-15T12:13:58;11.40;1.00
6355;DHT22;3210;48.708;9.030;2023-02-15T12:16:26;11.60;1.00
6355;DHT22;3210;48.708;9.030;2023-02-15T12:18:56;11.70;1.00
6355;DHT22;3210;48.708;9.030;2023-02-15T12:21:26;11.70;1.00
6355;DHT22;3210;48.708;9.030;2023-02-15T12:23:56;11.80;1.00
6355;DHT22;3210;48.708;9.030;2023-02-15T12:26:24;11.80;1.00
6355;DHT22;3210;48.708;9.030;2023-02-15T12:28:52;11.90;1.00
6355;DHT22;3210;48.708;9.030;2023-02-15T12:31:21;12.00;1.00
6355;DHT22;3210;48.708;9.030;2023-02-15T12:33:52;12.00;1.00
6355;DHT22;3210;48.708;9.030;2023-02-15T12:36:21;12.00;1.00
6355;DHT22;3210;48.708;9.030;2023-02-15T12:39:17;12.00;1.00
6355;DHT22;3210;48.708;9.030;2023-02-15T12:41:49;12.10;1.00
6355;DHT22;3210;48.708;9.030;2023-02-15T12:44:24;12.30;1.00
6355;DHT22;3210;48.708;9.030;2023-02-15T12:46:57;12.30;1.00
6355;DHT22;3210;48.708;9.030;2023-02-15T12:49:24;12.40;1.00
6355;DHT22;3210;48.708;9.030;2023-02-15T12:51:53;12.40;1.00
6355;DHT22;3210;48.708;9.030;2023-02-15T12:54:35;12.50;1.00
6355;DHT22;3210;48.708;9.030;2023-02-15T12:57:25;12.50;1.00
6355;DHT22;3210;48.708;9.030;2023-02-15T12:59:54;12.40;1.00
6355;DHT22;3210;48.708;9.030;2023-02-15T13:02:28;12.40;1.00
6355;DHT22;3210;48.708;9.030;2023-02-15T13:04:57;12.50;1.00
6355;DHT22;3210;48.708;9.030;2023-02-15T13:07:31;12.50;1.00
6355;DHT22;3210;48.708;9.030;2023-02-15T13:09:58;12.40;1.00
6355;DHT22;3210;48.708;9.030;2023-02-15T13:12:27;12.60;1.00
6355;DHT22;3210;48.708;9.030;2023-02-15T13:14:56;12.70;1.00
6355;DHT22;3210;48.708;9.030;2023-02-15T13:17:26;12.80;1.00
6355;DHT22;3210;48.708;9.030;2023-02-15T13:19:58;12.90;1.00
6355;DHT22;3210;48.708;9.030;2023-02-15T13:22:33;12.90;1.00
6355;DHT22;3210;48.708;9.030;2023-02-15T13:25:04;12.90;1.00
6355;DHT22;3210;48.708;9.030;2023-02-15T13:27:38;13.10;1.00
6355;DHT22;3210;48.708;9.030;2023-02-15T13:30:17;13.00;1.00
6355;DHT22;3210;48.708;9.030;2023-02-15T13:32:48;12.90;1.00
6355;DHT22;3210;48.708;9.030;2023-02-15T13:35:17;13.00;1.00
6355;DHT22;3210;48.708;9.030;2023-02-15T13:38:06;13.00;1.00
6355;DHT22;3210;48.708;9.030;2023-02-15T13:40:42;13.00;1.00
6355;DHT22;3210;48.708;9.030;2023-02-15T13:43:20;13.00;1.00
6355;DHT22;3210;48.708;9.030;2023-02-15T13:46:01;13.10;1.00
6355;DHT22;3210;48.708;9.030;2023-02-15T13:48:37;13.10;1.00
6355;DHT22;3210;48.708;9.030;2023-02-15T13:51:12;13.10;1.00
6355;DHT22;3210;48.708;9.030;2023-02-15T13:54:05;13.10;1.00
6355;DHT22;3210;48.708;9.030;2023-02-15T13:56:46;13.10;1.00
6355;DHT22;3210;48.708;9.030;2023-02-15T13:59:38;13.10;1.00
6355;DHT22;3210;48.708;9.030;2023-02-15T14:02:42;13.00;1.00
6355;DHT22;3210;48.708;9.030;2023-02-15T14:05:28;12.90;1.00
6355;DHT22;3210;48.708;9.030;2023-02-15T14:08:04;13.00;1.00
6355;DHT22;3210;48.708;9.030;2023-02-15T14:10:43;12.90;1.00
6355;DHT22;3210;48.708;9.030;2023-02-15T14:16:27;12.90;1.00
6355;DHT22;3210;48.708;9.030;2023-02-15T14:19:06;12.80;1.00
6355;DHT22;3210;48.708;9.030;2023-02-15T14:21:40;12.80;1.00
6355;DHT22;3210;48.708;9.030;2023-02-15T14:24:17;12.80;1.00
6355;DHT22;3210;48.708;9.030;2023-02-15T14:26:52;12.60;1.00
6355;DHT22;3210;48.708;9.030;2023-02-15T14:29:28;12.70;1.00
6355;DHT22;3210;48.708;9.030;2023-02-15T14:32:02;12.70;1.00
6355;DHT22;3210;48.708;9.030;2023-02-15T14:34:37;12.50;1.00
6355;DHT22;3210;48.708;9.030;2023-02-15T14:37:10;12.50;1.00
6355;DHT22;3210;48.708;9.030;2023-02-15T14:39:46;12.30;1.00
6355;DHT22;3210;48.708;9.030;2023-02-15T14:42:40;12.20;1.00
6355;DHT22;3210;48.708;9.030;2023-02-15T14:45:17;12.10;1.00
6355;DHT22;3210;48.708;9.030;2023-02-15T14:47:48;12.00;1.00
6355;DHT22;3210;48.708;9.030;2023-02-15T14:50:40;11.90;1.00
6355;DHT22;3210;48.708;9.030;2023-02-15T14:53:33;12.00;1.00
6355;DHT22;3210;48.708;9.030;2023-02-15T14:56:22;12.00;1.00
6355;DHT22;3210;48.708;9.030;2023-02-15T14:59:11;11.90;1.00
6355;DHT22;3210;48.708;9.030;2023-02-15T15:01:40;11.80;1.00
6355;DHT22;3210;48.708;9.030;2023-02-15T15:04:09;11.80;1.00
6355;DHT22;3210;48.708;9.030;2023-02-15T15:06:38;11.60;1.00
6355;DHT22;3210;48.708;9.030;2023-02-15T15:09:12;11.60;1.00
6355;DHT22;3210;48.708;9.030;2023-02-15T15:11:44;11.50;1.00
6355;DHT22;3210;48.708;9.030;2023-02-15T15:17:13;11.50;1.00
6355;DHT22;3210;48.708;9.030;2023-02-15T15:20:11;11.40;1.00
6355;DHT22;3210;48.708;9.030;2023-02-15T15:22:40;11.30;1.00
6355;DHT22;3210;48.708;9.030;2023-02-15T15:25:39;11.30;1.00
6355;DHT22;3210;48.708;9.030;2023-02-15T15:28:07;11.20;1.00
6355;DHT22;3210;48.708;9.030;2023-02-15T15:30:59;11.10;1.00
6355;DHT22;3210;48.708;9.030;2023-02-15T15:37:16;10.80;1.00
6355;DHT22;3210;48.708;9.030;2023-02-15T15:40:21;10.80;1.00
6355;DHT22;3210;48.708;9.030;2023-02-15T15:46:05;10.40;1.00
6355;DHT22;3210;48.708;9.030;2023-02-15T15:48:35;10.40;1.00
6355;DHT22;3210;48.708;9.030;2023-02-15T15:51:10;10.30;1.00
6355;DHT22;3210;48.708;9.030;2023-02-15T15:53:40;10.20;1.00
6355;DHT22;3210;48.708;9.030;2023-02-15T15:56:12;10.20;1.00
6355;DHT22;3210;48.708;9.030;2023-02-15T15:58:44;10.20;1.00
6355;DHT22;3210;48.708;9.030;2023-02-15T16:01:11;10.20;1.00
6355;DHT22;3210;48.708;9.030;2023-02-15T16:03:48;10.10;1.00
6355;DHT22;3210;48.708;9.030;2023-02-15T16:06:28;9.90;1.00
6355;DHT22;3210;48.708;9.030;2023-02-15T16:08:55;9.90;1.00
6355;DHT22;3210;48.708;9.030;2023-02-15T16:11:24;9.70;1.00
6355;DHT22;3210;48.708;9.030;2023-02-15T16:13:51;9.60;1.00
6355;DHT22;3210;48.708;9.030;2023-02-15T16:16:21;9.30;1.00
6355;DHT22;3210;48.708;9.030;2023-02-15T16:18:48;9.20;1.00
6355;DHT22;3210;48.708;9.030;2023-02-15T16:21:19;9.20;1.00
6355;DHT22;3210;48.708;9.030;2023-02-15T16:24:09;9.00;1.00
6355;DHT22;3210;48.708;9.030;2023-02-15T16:26:57;8.90;1.00
6355;DHT22;3210;48.708;9.030;2023-02-15T16:29:28;8.80;1.00
6355;DHT22;3210;48.708;9.030;2023-02-15T16:31:58;8.70;1.00
6355;DHT22;3210;48.708;9.030;2023-02-15T16:34:26;8.60;1.00
6355;DHT22;3210;48.708;9.030;2023-02-15T16:37:16;8.40;1.00
6355;DHT22;3210;48.708;9.030;2023-02-15T16:39:44;8.20;1.00
6355;DHT22;3210;48.708;9.030;2023-02-15T16:42:11;8.10;1.00
6355;DHT22;3210;48.708;9.030;2023-02-15T16:44:40;7.70;1.00
6355;DHT22;3210;48.708;9.030;2023-02-15T16:47:14;7.50;1.00
6355;DHT22;3210;48.708;9.030;2023-02-15T16:49:45;7.30;1.00
6355;DHT22;3210;48.708;9.030;2023-02-15T16:52:18;7.00;1.00
6355;DHT22;3210;48.708;9.030;2023-02-15T16:54:54;6.80;1.00
6355;DHT22;3210;48.708;9.030;2023-02-15T16:57:24;6.60;1.00
6355;DHT22;3210;48.708;9.030;2023-02-15T16:59:54;6.40;1.00
6355;DHT22;3210;48.708;9.030;2023-02-15T17:02:25;6.30;1.00